sensor_id;sensor_type;location;lat;lon;timestamp;pressure;altitude;pressure_sealevel;temperature;humidity
34370;BME280;20635;55.812;37.560;2023-02-04T00:00:46;98821.47;;;21.22;28.96
34370;BME280;20635;55.812;37.560;2023-02-04T00:03:14;98830.31;;;21.24;28.90
34370;BME280;20635;55.812;37.560;2023-02-04T00:05:41;98826.72;;;21.23;28.88
34370;BME280;20635;55.812;37.560;2023-02-04T00:08:07;98825.56;;;21.24;28.95
34370;BME280;20635;55.812;37.560;2023-02-04T00:10:35;98839.19;;;21.26;28.97
34370;BME280;20635;55.812;37.560;2023-02-04T00:13:02;98820.81;;;21.25;29.07
34370;BME280;20635;55.812;37.560;2023-02-04T00:15:28;98831.66;;;21.26;29.06
34370;BME280;20635;55.812;37.560;2023-02-04T00:17:55;98830.50;;;21.27;29.07
34370;BME280;20635;55.812;37.560;2023-02-04T00:20:23;98827.38;;;21.29;29.05
34370;BME280;20635;55.812;37.560;2023-02-04T00:22:49;98833.78;;;21.29;28.93
34370;BME280;20635;55.812;37.560;2023-02-04T00:25:16;98833.78;;;21.29;29.04
34370;BME280;20635;55.812;37.560;2023-02-04T00:27:42;98836.28;;;21.31;29.05
34370;BME280;20635;55.812;37.560;2023-02-04T00:30:09;98842.66;;;21.32;29.10
34370;BME280;20635;55.812;37.560;2023-02-04T00:32:35;98847.09;;;21.33;29.03
34370;BME280;20635;55.812;37.560;2023-02-04T00:35:01;98845.13;;;21.33;29.01
34370;BME280;20635;55.812;37.560;2023-02-04T00:37:32;98840.38;;;21.34;29.07
34370;BME280;20635;55.812;37.560;2023-02-04T00:39:58;98836.44;;;21.35;29.05
34370;BME280;20635;55.812;37.560;2023-02-04T00:42:24;98842.84;;;21.35;29.27
34370;BME280;20635;55.812;37.560;2023-02-04T00:44:49;98853.31;;;21.38;29.77
34370;BME280;20635;55.812;37.560;2023-02-04T00:47:16;98853.31;;;21.38;29.84
34370;BME280;20635;55.812;37.560;2023-02-04T00:49:42;98856.63;;;21.40;29.60
34370;BME280;20635;55.812;37.560;2023-02-04T00:52:07;98848.25;;;21.40;29.85
34370;BME280;20635;55.812;37.560;2023-02-04T00:54:33;98864.66;;;21.42;29.77
34370;BME280;20635;55.812;37.560;2023-02-04T00:57:00;98859.06;;;21.42;29.50
34370;BME280;20635;55.812;37.560;2023-02-04T00:59:26;98855.13;;;21.43;29.58
34370;BME280;20635;55.812;37.560;2023-02-04T01:01:52;98859.59;;;21.44;29.40
34370;BME280;20635;55.812;37.560;2023-02-04T01:04:18;98868.75;;;21.44;29.47
34370;BME280;20635;55.812;37.560;2023-02-04T01:06:43;98870.06;;;21.47;29.50
34370;BME280;20635;55.812;37.560;2023-02-04T01:09:09;98863.66;;;21.46;29.50
34370;BME280;20635;55.812;37.560;2023-02-04T01:11:36;98865.31;;;21.47;29.45
34370;BME280;20635;55.812;37.560;2023-02-04T01:14:02;98868.91;;;21.48;29.35
34370;BME280;20635;55.812;37.560;2023-02-04T01:16:28;98862.84;;;21.46;29.56
34370;BME280;20635;55.812;37.560;2023-02-04T01:18:54;98866.63;;;21.50;29.46
34370;BME280;20635;55.812;37.560;2023-02-04T01:21:22;98867.44;;;21.50;29.29
34370;BME280;20635;55.812;37.560;2023-02-04T01:23:48;98867.94;;;21.52;29.62
34370;BME280;20635;55.812;37.560;2023-02-04T01:26:16;98871.56;;;21.53;29.47
34370;BME280;20635;55.812;37.560;2023-02-04T01:28:42;98866.81;;;21.53;29.42
34370;BME280;20635;55.812;37.560;2023-02-04T01:31:07;98870.06;;;21.56;29.13
34370;BME280;20635;55.812;37.560;2023-02-04T01:33:33;98868.09;;;21.56;29.18
34370;BME280;20635;55.812;37.560;2023-02-04T01:35:59;98868.91;;;21.57;29.04
34370;BME280;20635;55.812;37.560;2023-02-04T01:38:25;98873.38;;;21.58;28.93
34370;BME280;20635;55.812;37.560;2023-02-04T01:40:51;98882.56;;;21.58;29.00
34370;BME280;20635;55.812;37.560;2023-02-04T01:43:19;98878.63;;;21.59;28.95
34370;BME280;20635;55.812;37.560;2023-02-04T01:45:47;98888.63;;;21.60;28.88
34370;BME280;20635;55.812;37.560;2023-02-04T01:48:14;98895.81;;;21.61;29.02
34370;BME280;20635;55.812;37.560;2023-02-04T01:50:46;98896.63;;;21.62;28.78
34370;BME280;20635;55.812;37.560;2023-02-04T01:53:14;98897.50;;;21.62;28.68
34370;BME280;20635;55.812;37.560;2023-02-04T01:55:42;98903.06;;;21.62;28.96
34370;BME280;20635;55.812;37.560;2023-02-04T01:58:09;98909.47;;;21.63;29.04
34370;BME280;20635;55.812;37.560;2023-02-04T02:00:37;98909.13;;;21.64;28.82
34370;BME280;20635;55.812;37.560;2023-02-04T02:03:04;98911.09;;;21.64;28.82
34370;BME280;20635;55.812;37.560;2023-02-04T02:05:49;98915.50;;;21.65;28.91
34370;BME280;20635;55.812;37.560;2023-02-04T02:08:17;98907.16;;;21.65;28.97
34370;BME280;20635;55.812;37.560;2023-02-04T02:10:46;98918.31;;;21.65;28.95
34370;BME280;20635;55.812;37.560;2023-02-04T02:13:15;98921.59;;;21.67;28.88
34370;BME280;20635;55.812;37.560;2023-02-04T02:15:42;98919.94;;;21.66;28.91
34370;BME280;20635;55.812;37.560;2023-02-04T02:18:08;98917.16;;;21.66;28.76
34370;BME280;20635;55.812;37.560;2023-02-04T02:20:35;98922.41;;;21.67;28.67
34370;BME280;20635;55.812;37.560;2023-02-04T02:23:25;98931.78;;;21.71;28.92
34370;BME280;20635;55.812;37.560;2023-02-04T02:25:54;98934.41;;;21.68;28.76
34370;BME280;20635;55.812;37.560;2023-02-04T02:28:21;98935.22;;;21.68;28.86
34370;BME280;20635;55.812;37.560;2023-02-04T02:30:48;98936.03;;;21.69;28.67
34370;BME280;20635;55.812;37.560;2023-02-04T02:33:16;98942.41;;;21.69;28.71
34370;BME280;20635;55.812;37.560;2023-02-04T02:35:44;98939.63;;;21.69;28.91
34370;BME280;20635;55.812;37.560;2023-02-04T02:38:14;98938.47;;;21.70;28.93
34370;BME280;20635;55.812;37.560;2023-02-04T02:40:40;98946.03;;;21.70;28.90
34370;BME280;20635;55.812;37.560;2023-02-04T02:43:09;98940.16;;;21.71;28.84
34370;BME280;20635;55.812;37.560;2023-02-04T02:45:37;98939.28;;;21.71;29.01
34370;BME280;20635;55.812;37.560;2023-02-04T02:48:03;98948.50;;;21.71;28.92
34370;BME280;20635;55.812;37.560;2023-02-04T02:50:30;98952.13;;;21.72;29.00
34370;BME280;20635;55.812;37.560;2023-02-04T02:52:58;98947.66;;;21.71;29.09
34370;BME280;20635;55.812;37.560;2023-02-04T02:55:26;98944.88;;;21.71;28.81
34370;BME280;20635;55.812;37.560;2023-02-04T02:57:55;98948.81;;;21.70;28.84
34370;BME280;20635;55.812;37.560;2023-02-04T03:00:23;98956.88;;;21.71;28.72
34370;BME280;20635;55.812;37.560;2023-02-04T03:03:07;98955.38;;;21.74;28.92
34370;BME280;20635;55.812;37.560;2023-02-04T03:05:42;98954.91;;;21.72;29.09
34370;BME280;20635;55.812;37.560;2023-02-04T03:08:10;98963.28;;;21.72;29.08
34370;BME280;20635;55.812;37.560;2023-02-04T03:10:38;98959.66;;;21.71;28.83
34370;BME280;20635;55.812;37.560;2023-02-04T03:13:05;98956.03;;;21.71;29.00
34370;BME280;20635;55.812;37.560;2023-02-04T03:15:31;98960.50;;;21.72;28.98
34370;BME280;20635;55.812;37.560;2023-02-04T03:17:58;98953.25;;;21.71;29.00
34370;BME280;20635;55.812;37.560;2023-02-04T03:20:26;98963.28;;;21.72;29.00
34370;BME280;20635;55.812;37.560;2023-02-04T03:22:54;98966.88;;;21.72;28.77
34370;BME280;20635;55.812;37.560;2023-02-04T03:25:23;98972.13;;;21.74;29.06
34370;BME280;20635;55.812;37.560;2023-02-04T03:27:51;98972.94;;;21.74;29.00
34370;BME280;20635;55.812;37.560;2023-02-04T03:30:21;98964.91;;;21.73;28.99
34370;BME280;20635;55.812;37.560;2023-02-04T03:32:47;98963.75;;;21.74;29.01
34370;BME280;20635;55.812;37.560;2023-02-04T03:35:13;98966.53;;;21.74;29.02
34370;BME280;20635;55.812;37.560;2023-02-04T03:37:39;98974.91;;;21.74;28.90
34370;BME280;20635;55.812;37.560;2023-02-04T03:40:06;98972.13;;;21.74;29.08
34370;BME280;20635;55.812;37.560;2023-02-04T03:42:32;98980.50;;;21.74;29.10
34370;BME280;20635;55.812;37.560;2023-02-04T03:44:58;98980.50;;;21.74;29.00
34370;BME280;20635;55.812;37.560;2023-02-04T03:47:24;98980.50;;;21.74;28.83
34370;BME280;20635;55.812;37.560;2023-02-04T03:49:49;98983.78;;;21.76;28.95
34370;BME280;20635;55.812;37.560;2023-02-04T03:52:15;98996.06;;;21.75;28.98
34370;BME280;20635;55.812;37.560;2023-02-04T03:54:41;98996.06;;;21.75;29.01
34370;BME280;20635;55.812;37.560;2023-02-04T03:57:07;98996.88;;;21.75;29.02
34370;BME280;20635;55.812;37.560;2023-02-04T03:59:33;98990.50;;;21.75;29.02
34370;BME280;20635;55.812;37.560;2023-02-04T04:01:59;98998.84;;;21.75;28.98
34370;BME280;20635;55.812;37.560;2023-02-04T04:04:25;99006.91;;;21.76;29.53
34370;BME280;20635;55.812;37.560;2023-02-04T04:06:51;98995.75;;;21.76;30.98
34370;BME280;20635;55.812;37.560;2023-02-04T04:09:16;99006.09;;;21.76;30.95
34370;BME280;20635;55.812;37.560;2023-02-04T04:11:42;99009.38;;;21.78;30.44
34370;BME280;20635;55.812;37.560;2023-02-04T04:14:08;99009.38;;;21.78;30.22
34370;BME280;20635;55.812;37.560;2023-02-04T04:16:34;99002.97;;;21.77;30.28
34370;BME280;20635;55.812;37.560;2023-02-04T04:19:00;99008.22;;;21.79;30.03
34370;BME280;20635;55.812;37.560;2023-02-04T04:21:26;99015.75;;;21.78;29.66
34370;BME280;20635;55.812;37.560;2023-02-04T04:23:52;99019.38;;;21.79;29.78
34370;BME280;20635;55.812;37.560;2023-02-04T04:26:17;99019.38;;;21.79;29.87
34370;BME280;20635;55.812;37.560;2023-02-04T04:28:43;99012.97;;;21.78;29.73
34370;BME280;20635;55.812;37.560;2023-02-04T04:31:09;99020.19;;;21.79;29.71
34370;BME280;20635;55.812;37.560;2023-02-04T04:33:35;99022.97;;;21.79;29.63
34370;BME280;20635;55.812;37.560;2023-02-04T04:36:01;99025.78;;;21.79;29.45
34370;BME280;20635;55.812;37.560;2023-02-04T04:38:27;99021.00;;;21.80;29.41
34370;BME280;20635;55.812;37.560;2023-02-04T04:40:53;99033.00;;;21.81;29.50
34370;BME280;20635;55.812;37.560;2023-02-04T04:43:19;99034.97;;;21.80;29.50
34370;BME280;20635;55.812;37.560;2023-02-04T04:45:45;99032.16;;;21.80;29.15
34370;BME280;20635;55.812;37.560;2023-02-04T04:48:11;99032.16;;;21.80;29.49
34370;BME280;20635;55.812;37.560;2023-02-04T04:50:37;99034.97;;;21.80;29.22
34370;BME280;20635;55.812;37.560;2023-02-04T04:53:02;99039.41;;;21.81;29.13
34370;BME280;20635;55.812;37.560;2023-02-04T04:55:28;99039.41;;;21.81;29.08
34370;BME280;20635;55.812;37.560;2023-02-04T04:57:55;99040.53;;;21.80;29.02
34370;BME280;20635;55.812;37.560;2023-02-04T05:00:21;99044.16;;;21.81;29.23
34370;BME280;20635;55.812;37.560;2023-02-04T05:02:47;99048.91;;;21.80;29.20
34370;BME280;20635;55.812;37.560;2023-02-04T05:05:13;99051.69;;;21.80;29.09
34370;BME280;20635;55.812;37.560;2023-02-04T05:07:39;99050.56;;;21.81;29.18
34370;BME280;20635;55.812;37.560;2023-02-04T05:10:05;99052.84;;;21.79;29.19
34370;BME280;20635;55.812;37.560;2023-02-04T05:12:31;99066.50;;;21.81;29.01
34370;BME280;20635;55.812;37.560;2023-02-04T05:14:57;99068.94;;;21.82;29.13
34370;BME280;20635;55.812;37.560;2023-02-04T05:17:23;99060.06;;;21.80;29.04
34370;BME280;20635;55.812;37.560;2023-02-04T05:19:49;99071.22;;;21.80;28.92
34370;BME280;20635;55.812;37.560;2023-02-04T05:22:15;99070.09;;;21.81;29.15
34370;BME280;20635;55.812;37.560;2023-02-04T05:24:40;99071.72;;;21.82;29.37
34370;BME280;20635;55.812;37.560;2023-02-04T05:27:06;99074.84;;;21.81;29.23
34370;BME280;20635;55.812;37.560;2023-02-04T05:29:32;99080.09;;;21.82;29.26
34370;BME280;20635;55.812;37.560;2023-02-04T05:31:58;99080.91;;;21.83;29.06
34370;BME280;20635;55.812;37.560;2023-02-04T05:34:24;99082.88;;;21.82;29.04
34370;BME280;20635;55.812;37.560;2023-02-04T05:36:50;99090.09;;;21.83;29.03
34370;BME280;20635;55.812;37.560;2023-02-04T05:39:16;99095.69;;;21.83;29.17
34370;BME280;20635;55.812;37.560;2023-02-04T05:41:41;99093.72;;;21.84;29.34
34370;BME280;20635;55.812;37.560;2023-02-04T05:44:07;99097.31;;;21.84;29.18
34370;BME280;20635;55.812;37.560;2023-02-04T05:46:33;99105.69;;;21.84;29.12
34370;BME280;20635;55.812;37.560;2023-02-04T05:48:59;99102.06;;;21.84;28.90
34370;BME280;20635;55.812;37.560;2023-02-04T05:51:25;99102.06;;;21.84;28.92
34370;BME280;20635;55.812;37.560;2023-02-04T05:53:51;99108.47;;;21.84;28.89
34370;BME280;20635;55.812;37.560;2023-02-04T05:56:17;99110.16;;;21.85;28.95
34370;BME280;20635;55.812;37.560;2023-02-04T05:58:42;99107.34;;;21.85;29.13
34370;BME280;20635;55.812;37.560;2023-02-04T06:01:08;99113.22;;;21.84;28.90
34370;BME280;20635;55.812;37.560;2023-02-04T06:03:34;99115.72;;;21.85;28.99
34370;BME280;20635;55.812;37.560;2023-02-04T06:06:00;99124.09;;;21.85;29.07
34370;BME280;20635;55.812;37.560;2023-02-04T06:08:26;99119.34;;;21.86;28.88
34370;BME280;20635;55.812;37.560;2023-02-04T06:10:52;99129.66;;;21.85;28.61
34370;BME280;20635;55.812;37.560;2023-02-04T06:13:17;99132.47;;;21.85;28.79
34370;BME280;20635;55.812;37.560;2023-02-04T06:15:43;99137.22;;;21.85;28.67
34370;BME280;20635;55.812;37.560;2023-02-04T06:18:09;99151.16;;;21.85;28.51
34370;BME280;20635;55.812;37.560;2023-02-04T06:20:35;99153.09;;;21.84;28.97
34370;BME280;20635;55.812;37.560;2023-02-04T06:23:01;99155.91;;;21.84;29.13
34370;BME280;20635;55.812;37.560;2023-02-04T06:25:27;99156.75;;;21.85;29.00
34370;BME280;20635;55.812;37.560;2023-02-04T06:27:53;99160.66;;;21.84;28.77
34370;BME280;20635;55.812;37.560;2023-02-04T06:30:18;99165.13;;;21.85;28.92
34370;BME280;20635;55.812;37.560;2023-02-04T06:32:44;99167.91;;;21.85;28.78
34370;BME280;20635;55.812;37.560;2023-02-04T06:35:10;99161.81;;;21.83;28.73
34370;BME280;20635;55.812;37.560;2023-02-04T06:37:38;99167.06;;;21.84;28.73
34370;BME280;20635;55.812;37.560;2023-02-04T06:40:04;99172.63;;;21.84;29.62
34370;BME280;20635;55.812;37.560;2023-02-04T06:42:30;99172.63;;;21.84;29.43
34370;BME280;20635;55.812;37.560;2023-02-04T06:44:56;99172.63;;;21.84;28.92
34370;BME280;20635;55.812;37.560;2023-02-04T06:47:22;99176.56;;;21.83;29.08
34370;BME280;20635;55.812;37.560;2023-02-04T06:49:48;99175.75;;;21.83;28.93
34370;BME280;20635;55.812;37.560;2023-02-04T06:52:14;99186.56;;;21.84;28.83
34370;BME280;20635;55.812;37.560;2023-02-04T06:54:40;99188.53;;;21.84;28.88
34370;BME280;20635;55.812;37.560;2023-02-04T06:57:06;99188.25;;;21.85;28.56
34370;BME280;20635;55.812;37.560;2023-02-04T06:59:33;99193.31;;;21.83;28.84
34370;BME280;20635;55.812;37.560;2023-02-04T07:01:59;99191.34;;;21.84;28.70
34370;BME280;20635;55.812;37.560;2023-02-04T07:04:25;99185.75;;;21.84;28.60
34370;BME280;20635;55.812;37.560;2023-02-04T07:06:51;99198.06;;;21.83;28.79
34370;BME280;20635;55.812;37.560;2023-02-04T07:09:17;99198.88;;;21.83;28.83
34370;BME280;20635;55.812;37.560;2023-02-04T07:11:43;99201.38;;;21.85;28.83
34370;BME280;20635;55.812;37.560;2023-02-04T07:14:08;99199.69;;;21.84;28.68
34370;BME280;20635;55.812;37.560;2023-02-04T07:16:35;99199.69;;;21.84;28.61
34370;BME280;20635;55.812;37.560;2023-02-04T07:19:02;99218.09;;;21.85;28.64
34370;BME280;20635;55.812;37.560;2023-02-04T07:21:28;99207.25;;;21.83;28.87
34370;BME280;20635;55.812;37.560;2023-02-04T07:23:54;99209.75;;;21.85;28.70
34370;BME280;20635;55.812;37.560;2023-02-04T07:26:20;99214.47;;;21.84;28.85
34370;BME280;20635;55.812;37.560;2023-02-04T07:28:46;99212.00;;;21.83;28.94
34370;BME280;20635;55.812;37.560;2023-02-04T07:31:13;99220.03;;;21.84;28.77
34370;BME280;20635;55.812;37.560;2023-02-04T07:33:39;99228.41;;;21.84;28.64
34370;BME280;20635;55.812;37.560;2023-02-04T07:36:05;99225.13;;;21.82;28.75
34370;BME280;20635;55.812;37.560;2023-02-04T07:38:31;99222.84;;;21.84;28.68
34370;BME280;20635;55.812;37.560;2023-02-04T07:40:57;99233.19;;;21.84;28.95
34370;BME280;20635;55.812;37.560;2023-02-04T07:43:23;99231.19;;;21.84;28.68
34370;BME280;20635;55.812;37.560;2023-02-04T07:45:49;99235.97;;;21.84;28.63
34370;BME280;20635;55.812;37.560;2023-02-04T07:48:15;99237.94;;;21.83;28.71
34370;BME280;20635;55.812;37.560;2023-02-04T07:50:40;99234.31;;;21.83;28.87
34370;BME280;20635;55.812;37.560;2023-02-04T07:53:06;99238.75;;;21.84;28.80
34370;BME280;20635;55.812;37.560;2023-02-04T07:55:32;99237.13;;;21.83;28.74
34370;BME280;20635;55.812;37.560;2023-02-04T07:57:58;99246.31;;;21.83;28.71
34370;BME280;20635;55.812;37.560;2023-02-04T08:00:24;99235.16;;;21.83;28.98
34370;BME280;20635;55.812;37.560;2023-02-04T08:02:50;99242.69;;;21.83;28.84
34370;BME280;20635;55.812;37.560;2023-02-04T08:05:16;99246.31;;;21.83;28.82
34370;BME280;20635;55.812;37.560;2023-02-04T08:07:42;99249.09;;;21.83;28.73
34370;BME280;20635;55.812;37.560;2023-02-04T08:10:09;99253.84;;;21.83;28.75
34370;BME280;20635;55.812;37.560;2023-02-04T08:12:35;99248.28;;;21.83;28.86
34370;BME280;20635;55.812;37.560;2023-02-04T08:15:02;99254.66;;;21.83;28.96
34370;BME280;20635;55.812;37.560;2023-02-04T08:17:28;99247.44;;;21.82;28.95
34370;BME280;20635;55.812;37.560;2023-02-04T08:19:54;99250.25;;;21.82;28.75
34370;BME280;20635;55.812;37.560;2023-02-04T08:22:21;99248.28;;;21.83;28.85
34370;BME280;20635;55.812;37.560;2023-02-04T08:24:47;99246.63;;;21.82;29.26
34370;BME280;20635;55.812;37.560;2023-02-04T08:27:13;99251.88;;;21.83;29.42
34370;BME280;20635;55.812;37.560;2023-02-04T08:29:39;99261.06;;;21.84;29.67
34370;BME280;20635;55.812;37.560;2023-02-04T08:32:05;99260.25;;;21.83;29.99
34370;BME280;20635;55.812;37.560;2023-02-04T08:34:30;99263.03;;;21.83;30.37
34370;BME280;20635;55.812;37.560;2023-02-04T08:36:56;99263.03;;;21.83;30.61
34370;BME280;20635;55.812;37.560;2023-02-04T08:39:22;99265.53;;;21.85;31.42
34370;BME280;20635;55.812;37.560;2023-02-04T08:41:48;99273.03;;;21.84;31.59
34370;BME280;20635;55.812;37.560;2023-02-04T08:44:16;99270.25;;;21.84;31.98
34370;BME280;20635;55.812;37.560;2023-02-04T08:46:41;99273.03;;;21.84;31.57
34370;BME280;20635;55.812;37.560;2023-02-04T08:49:07;99271.09;;;21.85;31.96
34370;BME280;20635;55.812;37.560;2023-02-04T08:51:33;99279.47;;;21.85;31.84
34370;BME280;20635;55.812;37.560;2023-02-04T08:53:59;99275.84;;;21.84;31.97
34370;BME280;20635;55.812;37.560;2023-02-04T08:56:25;99280.28;;;21.85;31.83
34370;BME280;20635;55.812;37.560;2023-02-04T08:58:51;99274.19;;;21.83;31.49
34370;BME280;20635;55.812;37.560;2023-02-04T09:01:20;99280.28;;;21.85;31.79
34370;BME280;20635;55.812;37.560;2023-02-04T09:03:46;99274.19;;;21.83;31.87
34370;BME280;20635;55.812;37.560;2023-02-04T09:06:11;99278.31;;;21.86;32.06
34370;BME280;20635;55.812;37.560;2023-02-04T09:08:37;99279.16;;;21.86;32.09
34370;BME280;20635;55.812;37.560;2023-02-04T09:11:03;99278.00;;;21.87;32.11
34370;BME280;20635;55.812;37.560;2023-02-04T09:13:30;99278.81;;;21.88;32.29
34370;BME280;20635;55.812;37.560;2023-02-04T09:15:57;99288.34;;;21.87;32.29
34370;BME280;20635;55.812;37.560;2023-02-04T09:18:23;99280.78;;;21.87;31.99
34370;BME280;20635;55.812;37.560;2023-02-04T09:20:51;99291.94;;;21.87;32.01
34370;BME280;20635;55.812;37.560;2023-02-04T09:23:17;99294.72;;;21.87;31.96
34370;BME280;20635;55.812;37.560;2023-02-04T09:25:44;99299.16;;;21.88;31.40
34370;BME280;20635;55.812;37.560;2023-02-04T09:28:11;99299.97;;;21.89;31.73
34370;BME280;20635;55.812;37.560;2023-02-04T09:30:39;99299.97;;;21.89;31.65
34370;BME280;20635;55.812;37.560;2023-02-04T09:33:05;99309.22;;;21.89;31.69
34370;BME280;20635;55.812;37.560;2023-02-04T09:35:32;99305.56;;;21.89;31.71
34370;BME280;20635;55.812;37.560;2023-02-04T09:37:58;99304.75;;;21.88;31.65
34370;BME280;20635;55.812;37.560;2023-02-04T09:40:25;99308.34;;;21.89;31.31
34370;BME280;20635;55.812;37.560;2023-02-04T09:42:52;99307.22;;;21.90;31.42
34370;BME280;20635;55.812;37.560;2023-02-04T09:45:22;99314.78;;;21.89;31.11
34370;BME280;20635;55.812;37.560;2023-02-04T09:47:50;99311.66;;;21.91;31.01
34370;BME280;20635;55.812;37.560;2023-02-04T09:50:19;99308.88;;;21.91;31.10
34370;BME280;20635;55.812;37.560;2023-02-04T09:52:47;99318.41;;;21.90;30.77
34370;BME280;20635;55.812;37.560;2023-02-04T09:55:16;99317.25;;;21.91;30.64
34370;BME280;20635;55.812;37.560;2023-02-04T09:57:43;99318.41;;;21.90;30.60
34370;BME280;20635;55.812;37.560;2023-02-04T10:00:20;99317.44;;;21.94;30.82
34370;BME280;20635;55.812;37.560;2023-02-04T10:02:46;99331.19;;;21.91;30.53
34370;BME280;20635;55.812;37.560;2023-02-04T10:05:18;99321.69;;;21.92;30.65
34370;BME280;20635;55.812;37.560;2023-02-04T10:07:45;99325.94;;;21.89;30.34
34370;BME280;20635;55.812;37.560;2023-02-04T10:10:23;99329.72;;;21.93;30.50
34370;BME280;20635;55.812;37.560;2023-02-04T10:12:54;99337.59;;;21.91;30.31
34370;BME280;20635;55.812;37.560;2023-02-04T10:15:21;99330.38;;;21.90;30.38
34370;BME280;20635;55.812;37.560;2023-02-04T10:17:50;99331.19;;;21.91;30.18
34370;BME280;20635;55.812;37.560;2023-02-04T10:20:21;99330.38;;;21.90;30.43
34370;BME280;20635;55.812;37.560;2023-02-04T10:22:48;99333.16;;;21.90;30.34
34370;BME280;20635;55.812;37.560;2023-02-04T10:25:17;99336.78;;;21.91;30.04
34370;BME280;20635;55.812;37.560;2023-02-04T10:27:54;99338.41;;;21.92;30.27
34370;BME280;20635;55.812;37.560;2023-02-04T10:30:27;99335.63;;;21.92;30.20
34370;BME280;20635;55.812;37.560;2023-02-04T10:32:54;99343.50;;;21.90;30.04
34370;BME280;20635;55.812;37.560;2023-02-04T10:35:21;99340.72;;;21.90;30.03
34370;BME280;20635;55.812;37.560;2023-02-04T10:38:01;99343.66;;;21.93;29.86
34370;BME280;20635;55.812;37.560;2023-02-04T10:40:32;99349.56;;;21.92;29.85
34370;BME280;20635;55.812;37.560;2023-02-04T10:42:58;99349.91;;;21.90;29.84
34370;BME280;20635;55.812;37.560;2023-02-04T10:45:27;99350.72;;;21.91;29.60
34370;BME280;20635;55.812;37.560;2023-02-04T10:47:55;99356.31;;;21.91;29.90
34370;BME280;20635;55.812;37.560;2023-02-04T10:50:26;99362.69;;;21.91;29.86
34370;BME280;20635;55.812;37.560;2023-02-04T10:52:58;99358.75;;;21.92;29.75
34370;BME280;20635;55.812;37.560;2023-02-04T10:55:45;99361.56;;;21.92;29.88
34370;BME280;20635;55.812;37.560;2023-02-04T10:58:14;99369.09;;;21.92;29.89
34370;BME280;20635;55.812;37.560;2023-02-04T11:00:41;99363.53;;;21.92;29.48
34370;BME280;20635;55.812;37.560;2023-02-04T11:03:15;99372.41;;;21.94;29.63
34370;BME280;20635;55.812;37.560;2023-02-04T11:05:44;99365.97;;;21.93;29.52
34370;BME280;20635;55.812;37.560;2023-02-04T11:08:30;99374.25;;;21.98;29.33
34370;BME280;20635;55.812;37.560;2023-02-04T11:11:05;99376.19;;;21.98;29.25
34370;BME280;20635;55.812;37.560;2023-02-04T11:13:43;99371.47;;;21.98;29.31
34370;BME280;20635;55.812;37.560;2023-02-04T11:27:19;99390.88;;;22.03;28.29
34370;BME280;20635;55.812;37.560;2023-02-04T11:29:37;99390.88;;;22.03;28.14
34370;BME280;20635;55.812;37.560;2023-02-04T11:34:35;99396.94;;;22.06;27.91
34370;BME280;20635;55.812;37.560;2023-02-04T11:37:15;99392.19;;;22.06;27.99
34370;BME280;20635;55.812;37.560;2023-02-04T11:39:46;99400.25;;;22.08;27.74
34370;BME280;20635;55.812;37.560;2023-02-04T11:42:29;99395.16;;;22.10;27.70
34370;BME280;20635;55.812;37.560;2023-02-04T11:45:20;99404.34;;;22.10;27.57
34370;BME280;20635;55.812;37.560;2023-02-04T11:47:49;99399.41;;;22.07;27.55
34370;BME280;20635;55.812;37.560;2023-02-04T11:52:56;99407.47;;;22.09;27.42
34370;BME280;20635;55.812;37.560;2023-02-04T11:55:23;99406.66;;;22.08;27.25
34370;BME280;20635;55.812;37.560;2023-02-04T11:57:54;99411.59;;;22.11;27.31
34370;BME280;20635;55.812;37.560;2023-02-04T12:00:26;99415.53;;;22.10;27.14
34370;BME280;20635;55.812;37.560;2023-02-04T12:03:02;99424.44;;;22.12;27.16
34370;BME280;20635;55.812;37.560;2023-02-04T12:11:00;99432.81;;;22.12;27.14
34370;BME280;20635;55.812;37.560;2023-02-04T12:13:27;99428.31;;;22.11;27.11
34370;BME280;20635;55.812;37.560;2023-02-04T12:15:58;99432.50;;;22.14;27.22
34370;BME280;20635;55.812;37.560;2023-02-04T12:18:24;99431.69;;;22.13;26.96
34370;BME280;20635;55.812;37.560;2023-02-04T12:20:57;99435.63;;;22.12;27.05
34370;BME280;20635;55.812;37.560;2023-02-04T12:23:25;99433.66;;;22.13;26.99
34370;BME280;20635;55.812;37.560;2023-02-04T12:25:51;99436.44;;;22.13;27.16
34370;BME280;20635;55.812;37.560;2023-02-04T12:28:17;99436.44;;;22.13;27.22
34370;BME280;20635;55.812;37.560;2023-02-04T12:30:42;99447.59;;;22.13;27.06
34370;BME280;20635;55.812;37.560;2023-02-04T12:33:08;99457.63;;;22.14;27.05
34370;BME280;20635;55.812;37.560;2023-02-04T12:35:34;99449.25;;;22.14;27.07
34370;BME280;20635;55.812;37.560;2023-02-04T12:38:00;99460.41;;;22.14;27.22
34370;BME280;20635;55.812;37.560;2023-02-04T12:40:27;99462.38;;;22.13;27.18
34370;BME280;20635;55.812;37.560;2023-02-04T12:42:53;99459.59;;;22.13;27.29
34370;BME280;20635;55.812;37.560;2023-02-04T12:45:19;99467.97;;;22.13;27.12
34370;BME280;20635;55.812;37.560;2023-02-04T12:47:46;99465.97;;;22.14;27.39
34370;BME280;20635;55.812;37.560;2023-02-04T12:50:16;99474.84;;;22.16;27.05
34370;BME280;20635;55.812;37.560;2023-02-04T12:52:55;99475.19;;;22.14;27.35
34370;BME280;20635;55.812;37.560;2023-02-04T12:55:22;99477.97;;;22.14;27.12
34370;BME280;20635;55.812;37.560;2023-02-04T12:57:49;99482.72;;;22.14;27.24
34370;BME280;20635;55.812;37.560;2023-02-04T13:00:16;99484.69;;;22.13;27.30
34370;BME280;20635;55.812;37.560;2023-02-04T13:02:43;99487.50;;;22.13;27.19
34370;BME280;20635;55.812;37.560;2023-02-04T13:05:09;99495.03;;;22.13;27.04
34370;BME280;20635;55.812;37.560;2023-02-04T13:07:35;99496.16;;;22.12;27.08
34370;BME280;20635;55.812;37.560;2023-02-04T13:10:02;99493.56;;;22.15;27.19
34370;BME280;20635;55.812;37.560;2023-02-04T13:12:29;99491.94;;;22.14;27.05